sensor_id;sensor_type;location;lat;lon;timestamp;P1;durP1;ratioP1;P2;durP2;ratioP2
37903;SDS011;23738;50.422;18.758;2023-05-16T00:00:13;7.10;;;6.00;;
37903;SDS011;23738;50.422;18.758;2023-05-16T00:02:59;8.10;;;5.80;;
37903;SDS011;23738;50.422;18.758;2023-05-16T00:05:46;8.60;;;5.60;;
37903;SDS011;23738;50.422;18.758;2023-05-16T00:08:15;6.80;;;6.10;;
37903;SDS011;23738;50.422;18.758;2023-05-16T00:10:57;7.00;;;6.30;;
37903;SDS011;23738;50.422;18.758;2023-05-16T00:13:25;6.50;;;5.90;;
37903;SDS011;23738;50.422;18.758;2023-05-16T00:16:32;7.00;;;5.70;;
37903;SDS011;23738;50.422;18.758;2023-05-16T00:19:07;5.60;;;5.10;;
37903;SDS011;23738;50.422;18.758;2023-05-16T00:21:54;5.90;;;5.40;;
37903;SDS011;23738;50.422;18.758;2023-05-16T00:24:37;7.50;;;6.30;;
37903;SDS011;23738;50.422;18.758;2023-05-16T00:27:24;7.40;;;6.80;;
37903;SDS011;23738;50.422;18.758;2023-05-16T00:29:52;8.10;;;6.60;;
37903;SDS011;23738;50.422;18.758;2023-05-16T00:32:19;8.00;;;6.70;;
37903;SDS011;23738;50.422;18.758;2023-05-16T00:35:02;7.80;;;6.70;;
37903;SDS011;23738;50.422;18.758;2023-05-16T00:37:49;6.50;;;4.90;;
37903;SDS011;23738;50.422;18.758;2023-05-16T00:40:33;6.80;;;6.20;;
37903;SDS011;23738;50.422;18.758;2023-05-16T00:43:00;7.10;;;5.70;;
37903;SDS011;23738;50.422;18.758;2023-05-16T00:45:57;7.80;;;7.00;;
37903;SDS011;23738;50.422;18.758;2023-05-16T00:48:25;7.30;;;6.70;;
37903;SDS011;23738;50.422;18.758;2023-05-16T00:50:56;11.90;;;6.50;;
37903;SDS011;23738;50.422;18.758;2023-05-16T00:53:24;7.30;;;6.60;;
37903;SDS011;23738;50.422;18.758;2023-05-16T00:55:52;8.90;;;5.90;;
37903;SDS011;23738;50.422;18.758;2023-05-16T00:58:20;7.70;;;5.30;;
37903;SDS011;23738;50.422;18.758;2023-05-16T01:00:47;6.40;;;5.70;;
37903;SDS011;23738;50.422;18.758;2023-05-16T01:03:16;7.90;;;6.40;;
37903;SDS011;23738;50.422;18.758;2023-05-16T01:05:43;9.20;;;7.10;;
37903;SDS011;23738;50.422;18.758;2023-05-16T01:08:11;10.10;;;7.60;;
37903;SDS011;23738;50.422;18.758;2023-05-16T01:10:48;7.10;;;6.40;;
37903;SDS011;23738;50.422;18.758;2023-05-16T01:13:25;7.00;;;6.30;;
37903;SDS011;23738;50.422;18.758;2023-05-16T01:16:03;7.40;;;6.70;;
37903;SDS011;23738;50.422;18.758;2023-05-16T01:18:39;8.30;;;7.40;;
37903;SDS011;23738;50.422;18.758;2023-05-16T01:21:15;7.20;;;6.50;;
37903;SDS011;23738;50.422;18.758;2023-05-16T01:23:51;9.00;;;6.70;;
37903;SDS011;23738;50.422;18.758;2023-05-16T01:26:26;7.70;;;6.90;;
37903;SDS011;23738;50.422;18.758;2023-05-16T01:28:55;6.60;;;6.00;;
37903;SDS011;23738;50.422;18.758;2023-05-16T01:31:22;7.80;;;7.10;;
37903;SDS011;23738;50.422;18.758;2023-05-16T01:33:50;9.50;;;6.20;;
37903;SDS011;23738;50.422;18.758;2023-05-16T01:36:21;8.80;;;7.30;;
37903;SDS011;23738;50.422;18.758;2023-05-16T01:38:55;8.50;;;7.70;;
37903;SDS011;23738;50.422;18.758;2023-05-16T01:41:29;8.00;;;7.10;;
37903;SDS011;23738;50.422;18.758;2023-05-16T01:44:06;11.00;;;7.30;;
37903;SDS011;23738;50.422;18.758;2023-05-16T01:46:44;10.80;;;8.00;;
37903;SDS011;23738;50.422;18.758;2023-05-16T01:49:15;9.80;;;6.80;;
37903;SDS011;23738;50.422;18.758;2023-05-16T01:51:50;8.10;;;6.10;;
37903;SDS011;23738;50.422;18.758;2023-05-16T01:54:23;6.70;;;6.00;;
37903;SDS011;23738;50.422;18.758;2023-05-16T01:56:53;8.90;;;8.10;;
37903;SDS011;23738;50.422;18.758;2023-05-16T01:59:22;9.30;;;8.50;;
37903;SDS011;23738;50.422;18.758;2023-05-16T02:01:52;9.00;;;8.20;;
37903;SDS011;23738;50.422;18.758;2023-05-16T02:04:22;10.70;;;9.60;;
37903;SDS011;23738;50.422;18.758;2023-05-16T02:06:50;13.60;;;9.10;;
37903;SDS011;23738;50.422;18.758;2023-05-16T02:09:17;10.00;;;8.80;;
37903;SDS011;23738;50.422;18.758;2023-05-16T02:11:44;9.20;;;8.30;;
37903;SDS011;23738;50.422;18.758;2023-05-16T02:14:12;8.00;;;7.30;;
37903;SDS011;23738;50.422;18.758;2023-05-16T02:16:39;10.80;;;9.40;;
37903;SDS011;23738;50.422;18.758;2023-05-16T02:19:07;10.60;;;9.70;;
37903;SDS011;23738;50.422;18.758;2023-05-16T02:21:36;16.10;;;11.90;;
37903;SDS011;23738;50.422;18.758;2023-05-16T02:24:04;11.60;;;10.40;;
37903;SDS011;23738;50.422;18.758;2023-05-16T02:26:32;17.00;;;12.90;;
37903;SDS011;23738;50.422;18.758;2023-05-16T02:28:59;13.20;;;12.00;;
37903;SDS011;23738;50.422;18.758;2023-05-16T02:31:27;11.30;;;10.30;;
37903;SDS011;23738;50.422;18.758;2023-05-16T02:33:56;14.80;;;12.50;;
37903;SDS011;23738;50.422;18.758;2023-05-16T02:36:23;21.40;;;12.70;;
37903;SDS011;23738;50.422;18.758;2023-05-16T02:38:51;16.00;;;14.30;;
37903;SDS011;23738;50.422;18.758;2023-05-16T02:41:18;12.80;;;11.40;;
37903;SDS011;23738;50.422;18.758;2023-05-16T02:43:47;12.50;;;10.50;;
37903;SDS011;23738;50.422;18.758;2023-05-16T02:46:20;12.10;;;10.90;;
37903;SDS011;23738;50.422;18.758;2023-05-16T02:48:49;13.30;;;11.90;;
37903;SDS011;23738;50.422;18.758;2023-05-16T02:51:17;16.60;;;11.80;;
37903;SDS011;23738;50.422;18.758;2023-05-16T02:53:45;15.00;;;12.50;;
37903;SDS011;23738;50.422;18.758;2023-05-16T02:56:12;14.60;;;13.20;;
37903;SDS011;23738;50.422;18.758;2023-05-16T02:58:40;15.20;;;11.60;;
37903;SDS011;23738;50.422;18.758;2023-05-16T03:01:07;12.90;;;11.70;;
37903;SDS011;23738;50.422;18.758;2023-05-16T03:03:34;14.00;;;11.20;;
37903;SDS011;23738;50.422;18.758;2023-05-16T03:06:02;14.00;;;12.50;;
37903;SDS011;23738;50.422;18.758;2023-05-16T03:08:30;14.00;;;12.60;;
37903;SDS011;23738;50.422;18.758;2023-05-16T03:11:02;17.20;;;12.70;;
37903;SDS011;23738;50.422;18.758;2023-05-16T03:13:29;15.30;;;13.90;;
37903;SDS011;23738;50.422;18.758;2023-05-16T03:15:56;18.10;;;12.10;;
37903;SDS011;23738;50.422;18.758;2023-05-16T03:18:24;11.50;;;10.50;;
37903;SDS011;23738;50.422;18.758;2023-05-16T03:20:53;12.40;;;11.30;;
37903;SDS011;23738;50.422;18.758;2023-05-16T03:23:20;14.40;;;13.00;;
37903;SDS011;23738;50.422;18.758;2023-05-16T03:25:48;15.60;;;14.00;;
37903;SDS011;23738;50.422;18.758;2023-05-16T03:28:15;17.10;;;15.50;;
37903;SDS011;23738;50.422;18.758;2023-05-16T03:30:43;16.30;;;14.20;;
37903;SDS011;23738;50.422;18.758;2023-05-16T03:33:12;14.30;;;12.90;;
37903;SDS011;23738;50.422;18.758;2023-05-16T03:35:39;15.20;;;13.80;;
37903;SDS011;23738;50.422;18.758;2023-05-16T03:38:07;15.50;;;13.90;;
37903;SDS011;23738;50.422;18.758;2023-05-16T03:40:35;18.30;;;14.90;;
37903;SDS011;23738;50.422;18.758;2023-05-16T03:43:02;17.20;;;15.50;;
37903;SDS011;23738;50.422;18.758;2023-05-16T03:45:30;19.70;;;15.50;;
37903;SDS011;23738;50.422;18.758;2023-05-16T03:47:57;17.10;;;15.60;;
37903;SDS011;23738;50.422;18.758;2023-05-16T03:50:24;14.70;;;13.30;;
37903;SDS011;23738;50.422;18.758;2023-05-16T03:52:52;12.50;;;11.20;;
37903;SDS011;23738;50.422;18.758;2023-05-16T03:55:19;17.20;;;13.10;;
37903;SDS011;23738;50.422;18.758;2023-05-16T03:57:47;16.30;;;13.20;;
37903;SDS011;23738;50.422;18.758;2023-05-16T04:00:15;15.60;;;14.00;;
37903;SDS011;23738;50.422;18.758;2023-05-16T04:02:43;16.90;;;15.20;;
37903;SDS011;23738;50.422;18.758;2023-05-16T04:05:10;16.20;;;14.80;;
37903;SDS011;23738;50.422;18.758;2023-05-16T04:07:38;14.60;;;13.10;;
37903;SDS011;23738;50.422;18.758;2023-05-16T04:10:06;13.10;;;11.70;;
37903;SDS011;23738;50.422;18.758;2023-05-16T04:12:35;14.90;;;12.90;;
37903;SDS011;23738;50.422;18.758;2023-05-16T04:15:02;14.10;;;12.60;;
37903;SDS011;23738;50.422;18.758;2023-05-16T04:17:32;15.70;;;14.10;;
37903;SDS011;23738;50.422;18.758;2023-05-16T04:19:59;14.00;;;12.80;;
37903;SDS011;23738;50.422;18.758;2023-05-16T04:22:26;17.90;;;14.70;;
37903;SDS011;23738;50.422;18.758;2023-05-16T04:24:54;14.40;;;12.90;;
37903;SDS011;23738;50.422;18.758;2023-05-16T04:27:21;13.20;;;11.90;;
37903;SDS011;23738;50.422;18.758;2023-05-16T04:29:49;11.90;;;10.90;;
37903;SDS011;23738;50.422;18.758;2023-05-16T04:32:16;12.00;;;10.90;;
37903;SDS011;23738;50.422;18.758;2023-05-16T04:34:53;14.30;;;12.20;;
37903;SDS011;23738;50.422;18.758;2023-05-16T04:37:28;12.50;;;11.50;;
37903;SDS011;23738;50.422;18.758;2023-05-16T04:40:04;11.80;;;10.60;;
37903;SDS011;23738;50.422;18.758;2023-05-16T04:42:34;10.40;;;9.30;;
37903;SDS011;23738;50.422;18.758;2023-05-16T04:45:02;10.50;;;9.50;;
37903;SDS011;23738;50.422;18.758;2023-05-16T04:47:31;11.10;;;10.10;;
37903;SDS011;23738;50.422;18.758;2023-05-16T04:49:58;11.40;;;10.20;;
37903;SDS011;23738;50.422;18.758;2023-05-16T04:52:26;12.80;;;11.70;;
37903;SDS011;23738;50.422;18.758;2023-05-16T04:54:54;13.10;;;12.00;;
37903;SDS011;23738;50.422;18.758;2023-05-16T04:57:25;11.10;;;10.10;;
37903;SDS011;23738;50.422;18.758;2023-05-16T04:59:53;9.20;;;8.50;;
37903;SDS011;23738;50.422;18.758;2023-05-16T05:02:20;8.00;;;7.30;;
37903;SDS011;23738;50.422;18.758;2023-05-16T05:04:48;10.50;;;8.90;;
37903;SDS011;23738;50.422;18.758;2023-05-16T05:07:15;9.20;;;8.40;;
37903;SDS011;23738;50.422;18.758;2023-05-16T05:09:43;9.60;;;7.90;;
37903;SDS011;23738;50.422;18.758;2023-05-16T05:12:11;10.60;;;8.60;;
37903;SDS011;23738;50.422;18.758;2023-05-16T05:14:38;7.50;;;6.80;;
37903;SDS011;23738;50.422;18.758;2023-05-16T05:17:05;6.40;;;5.90;;
37903;SDS011;23738;50.422;18.758;2023-05-16T05:19:33;7.60;;;6.20;;
37903;SDS011;23738;50.422;18.758;2023-05-16T05:22:00;7.60;;;7.00;;
37903;SDS011;23738;50.422;18.758;2023-05-16T05:24:27;8.00;;;7.00;;
37903;SDS011;23738;50.422;18.758;2023-05-16T05:26:55;7.50;;;6.90;;
37903;SDS011;23738;50.422;18.758;2023-05-16T05:29:22;6.00;;;5.50;;
37903;SDS011;23738;50.422;18.758;2023-05-16T05:31:49;6.00;;;5.50;;
37903;SDS011;23738;50.422;18.758;2023-05-16T05:34:17;7.30;;;6.50;;
37903;SDS011;23738;50.422;18.758;2023-05-16T05:36:44;10.00;;;6.70;;
37903;SDS011;23738;50.422;18.758;2023-05-16T05:39:11;7.70;;;6.90;;
37903;SDS011;23738;50.422;18.758;2023-05-16T05:41:38;7.30;;;6.70;;
37903;SDS011;23738;50.422;18.758;2023-05-16T05:44:06;7.20;;;6.60;;
37903;SDS011;23738;50.422;18.758;2023-05-16T05:46:33;7.40;;;6.30;;
37903;SDS011;23738;50.422;18.758;2023-05-16T05:49:01;8.50;;;5.60;;
37903;SDS011;23738;50.422;18.758;2023-05-16T05:51:29;7.10;;;6.50;;
37903;SDS011;23738;50.422;18.758;2023-05-16T05:53:56;7.70;;;6.90;;
37903;SDS011;23738;50.422;18.758;2023-05-16T05:56:24;8.50;;;7.00;;
37903;SDS011;23738;50.422;18.758;2023-05-16T05:58:51;7.70;;;7.00;;
37903;SDS011;23738;50.422;18.758;2023-05-16T06:01:18;6.90;;;6.20;;
37903;SDS011;23738;50.422;18.758;2023-05-16T06:03:46;6.20;;;5.60;;
37903;SDS011;23738;50.422;18.758;2023-05-16T06:06:14;6.70;;;6.00;;
37903;SDS011;23738;50.422;18.758;2023-05-16T06:08:42;6.50;;;6.00;;
37903;SDS011;23738;50.422;18.758;2023-05-16T06:11:10;6.20;;;5.70;;
37903;SDS011;23738;50.422;18.758;2023-05-16T06:13:37;7.40;;;6.30;;
37903;SDS011;23738;50.422;18.758;2023-05-16T06:16:04;6.70;;;6.00;;
37903;SDS011;23738;50.422;18.758;2023-05-16T06:18:32;5.70;;;5.20;;
37903;SDS011;23738;50.422;18.758;2023-05-16T06:20:59;6.00;;;5.50;;
37903;SDS011;23738;50.422;18.758;2023-05-16T06:23:26;6.30;;;5.90;;
37903;SDS011;23738;50.422;18.758;2023-05-16T06:25:54;5.90;;;5.40;;
37903;SDS011;23738;50.422;18.758;2023-05-16T06:28:21;5.50;;;5.10;;
37903;SDS011;23738;50.422;18.758;2023-05-16T06:30:49;4.60;;;4.20;;
37903;SDS011;23738;50.422;18.758;2023-05-16T06:33:17;5.70;;;5.20;;
37903;SDS011;23738;50.422;18.758;2023-05-16T06:35:44;5.20;;;4.80;;
37903;SDS011;23738;50.422;18.758;2023-05-16T06:38:13;4.80;;;4.40;;
37903;SDS011;23738;50.422;18.758;2023-05-16T06:40:44;4.90;;;4.50;;
37903;SDS011;23738;50.422;18.758;2023-05-16T06:43:11;4.90;;;4.50;;
37903;SDS011;23738;50.422;18.758;2023-05-16T06:45:38;5.10;;;4.30;;
37903;SDS011;23738;50.422;18.758;2023-05-16T06:48:06;6.20;;;4.90;;
37903;SDS011;23738;50.422;18.758;2023-05-16T06:50:34;5.70;;;5.00;;
37903;SDS011;23738;50.422;18.758;2023-05-16T06:53:01;5.60;;;5.10;;
37903;SDS011;23738;50.422;18.758;2023-05-16T06:55:29;4.90;;;4.40;;
37903;SDS011;23738;50.422;18.758;2023-05-16T06:57:57;4.90;;;4.60;;
37903;SDS011;23738;50.422;18.758;2023-05-16T07:00:24;6.00;;;5.00;;
37903;SDS011;23738;50.422;18.758;2023-05-16T07:02:52;5.20;;;4.80;;
37903;SDS011;23738;50.422;18.758;2023-05-16T07:05:19;6.40;;;4.50;;
37903;SDS011;23738;50.422;18.758;2023-05-16T07:07:46;5.40;;;4.20;;
37903;SDS011;23738;50.422;18.758;2023-05-16T07:10:14;5.10;;;4.10;;
37903;SDS011;23738;50.422;18.758;2023-05-16T07:12:41;6.20;;;5.30;;
37903;SDS011;23738;50.422;18.758;2023-05-16T07:15:10;5.00;;;4.50;;
37903;SDS011;23738;50.422;18.758;2023-05-16T07:17:37;5.40;;;4.80;;
37903;SDS011;23738;50.422;18.758;2023-05-16T07:20:06;5.30;;;4.60;;
37903;SDS011;23738;50.422;18.758;2023-05-16T07:22:38;5.20;;;4.70;;
37903;SDS011;23738;50.422;18.758;2023-05-16T07:25:07;4.60;;;4.20;;
37903;SDS011;23738;50.422;18.758;2023-05-16T07:27:37;5.40;;;4.20;;
37903;SDS011;23738;50.422;18.758;2023-05-16T07:30:07;4.40;;;3.90;;
37903;SDS011;23738;50.422;18.758;2023-05-16T07:32:37;6.10;;;4.20;;
37903;SDS011;23738;50.422;18.758;2023-05-16T07:35:04;4.30;;;3.70;;
37903;SDS011;23738;50.422;18.758;2023-05-16T07:37:34;4.30;;;4.00;;
37903;SDS011;23738;50.422;18.758;2023-05-16T07:40:01;7.30;;;4.20;;
37903;SDS011;23738;50.422;18.758;2023-05-16T07:42:31;5.20;;;4.70;;
37903;SDS011;23738;50.422;18.758;2023-05-16T07:44:59;5.40;;;4.00;;
37903;SDS011;23738;50.422;18.758;2023-05-16T07:47:26;4.00;;;3.70;;
37903;SDS011;23738;50.422;18.758;2023-05-16T07:49:54;4.20;;;3.80;;
37903;SDS011;23738;50.422;18.758;2023-05-16T07:52:21;4.60;;;3.70;;
37903;SDS011;23738;50.422;18.758;2023-05-16T07:54:48;4.10;;;3.70;;
37903;SDS011;23738;50.422;18.758;2023-05-16T07:57:16;3.70;;;3.40;;
37903;SDS011;23738;50.422;18.758;2023-05-16T07:59:43;4.00;;;3.60;;
37903;SDS011;23738;50.422;18.758;2023-05-16T08:02:11;3.40;;;3.10;;
37903;SDS011;23738;50.422;18.758;2023-05-16T08:04:39;3.50;;;3.20;;
37903;SDS011;23738;50.422;18.758;2023-05-16T08:07:06;4.60;;;3.60;;
37903;SDS011;23738;50.422;18.758;2023-05-16T08:09:33;4.40;;;3.10;;
37903;SDS011;23738;50.422;18.758;2023-05-16T08:12:01;4.30;;;3.30;;
37903;SDS011;23738;50.422;18.758;2023-05-16T08:14:29;3.70;;;3.30;;
37903;SDS011;23738;50.422;18.758;2023-05-16T08:16:57;3.70;;;2.90;;
37903;SDS011;23738;50.422;18.758;2023-05-16T08:19:25;6.60;;;3.00;;
37903;SDS011;23738;50.422;18.758;2023-05-16T08:21:54;3.10;;;2.90;;
37903;SDS011;23738;50.422;18.758;2023-05-16T08:24:22;3.10;;;2.80;;
37903;SDS011;23738;50.422;18.758;2023-05-16T08:26:49;3.00;;;2.70;;
37903;SDS011;23738;50.422;18.758;2023-05-16T08:29:17;4.00;;;3.70;;
37903;SDS011;23738;50.422;18.758;2023-05-16T08:31:44;3.10;;;2.80;;
37903;SDS011;23738;50.422;18.758;2023-05-16T08:34:11;3.10;;;2.80;;
37903;SDS011;23738;50.422;18.758;2023-05-16T08:36:39;3.90;;;3.10;;
37903;SDS011;23738;50.422;18.758;2023-05-16T08:39:06;5.50;;;3.00;;
37903;SDS011;23738;50.422;18.758;2023-05-16T08:41:36;3.20;;;2.70;;
37903;SDS011;23738;50.422;18.758;2023-05-16T08:44:05;5.90;;;2.80;;
37903;SDS011;23738;50.422;18.758;2023-05-16T08:46:35;4.50;;;3.00;;
37903;SDS011;23738;50.422;18.758;2023-05-16T08:49:05;3.60;;;2.70;;
37903;SDS011;23738;50.422;18.758;2023-05-16T08:51:33;4.10;;;2.80;;
37903;SDS011;23738;50.422;18.758;2023-05-16T08:54:03;3.40;;;2.30;;
37903;SDS011;23738;50.422;18.758;2023-05-16T08:56:36;4.30;;;2.80;;
37903;SDS011;23738;50.422;18.758;2023-05-16T08:59:04;4.50;;;2.90;;
37903;SDS011;23738;50.422;18.758;2023-05-16T09:01:34;3.30;;;2.70;;
37903;SDS011;23738;50.422;18.758;2023-05-16T09:04:02;4.40;;;2.60;;
37903;SDS011;23738;50.422;18.758;2023-05-16T09:06:32;3.70;;;3.20;;
37903;SDS011;23738;50.422;18.758;2023-05-16T09:08:59;3.40;;;2.70;;
37903;SDS011;23738;50.422;18.758;2023-05-16T09:11:27;3.40;;;2.70;;
37903;SDS011;23738;50.422;18.758;2023-05-16T09:13:56;4.90;;;3.30;;
37903;SDS011;23738;50.422;18.758;2023-05-16T09:16:24;3.50;;;2.30;;
37903;SDS011;23738;50.422;18.758;2023-05-16T09:18:53;8.00;;;3.10;;
37903;SDS011;23738;50.422;18.758;2023-05-16T09:21:21;5.80;;;2.70;;
37903;SDS011;23738;50.422;18.758;2023-05-16T09:23:52;3.10;;;2.40;;
37903;SDS011;23738;50.422;18.758;2023-05-16T09:26:19;3.30;;;2.90;;
37903;SDS011;23738;50.422;18.758;2023-05-16T09:28:48;5.00;;;2.80;;
37903;SDS011;23738;50.422;18.758;2023-05-16T09:31:20;2.90;;;2.70;;
37903;SDS011;23738;50.422;18.758;2023-05-16T09:33:51;3.20;;;2.70;;
37903;SDS011;23738;50.422;18.758;2023-05-16T09:36:18;2.70;;;2.30;;
37903;SDS011;23738;50.422;18.758;2023-05-16T09:38:46;2.80;;;2.50;;
37903;SDS011;23738;50.422;18.758;2023-05-16T09:41:15;2.90;;;2.60;;
37903;SDS011;23738;50.422;18.758;2023-05-16T09:43:42;5.10;;;2.90;;
37903;SDS011;23738;50.422;18.758;2023-05-16T09:46:11;3.10;;;2.60;;
37903;SDS011;23738;50.422;18.758;2023-05-16T09:48:40;4.60;;;2.40;;
37903;SDS011;23738;50.422;18.758;2023-05-16T09:51:10;4.70;;;2.50;;
37903;SDS011;23738;50.422;18.758;2023-05-16T09:53:39;3.10;;;2.80;;
37903;SDS011;23738;50.422;18.758;2023-05-16T09:56:09;5.40;;;2.30;;
37903;SDS011;23738;50.422;18.758;2023-05-16T09:58:37;4.50;;;2.20;;
37903;SDS011;23738;50.422;18.758;2023-05-16T10:01:06;2.70;;;2.40;;
37903;SDS011;23738;50.422;18.758;2023-05-16T10:03:35;2.20;;;2.00;;
37903;SDS011;23738;50.422;18.758;2023-05-16T10:06:03;3.10;;;2.00;;
37903;SDS011;23738;50.422;18.758;2023-05-16T10:08:32;5.30;;;2.30;;
37903;SDS011;23738;50.422;18.758;2023-05-16T10:11:01;2.40;;;2.20;;
37903;SDS011;23738;50.422;18.758;2023-05-16T10:13:30;2.30;;;2.10;;
37903;SDS011;23738;50.422;18.758;2023-05-16T10:15:59;7.80;;;2.50;;
37903;SDS011;23738;50.422;18.758;2023-05-16T10:18:32;3.20;;;2.10;;
37903;SDS011;23738;50.422;18.758;2023-05-16T10:21:04;3.20;;;2.20;;
37903;SDS011;23738;50.422;18.758;2023-05-16T10:23:33;4.40;;;2.30;;
37903;SDS011;23738;50.422;18.758;2023-05-16T10:26:02;3.80;;;2.50;;
37903;SDS011;23738;50.422;18.758;2023-05-16T10:28:31;3.10;;;2.50;;
37903;SDS011;23738;50.422;18.758;2023-05-16T10:30:59;2.60;;;2.40;;
37903;SDS011;23738;50.422;18.758;2023-05-16T10:33:27;3.40;;;2.60;;
37903;SDS011;23738;50.422;18.758;2023-05-16T10:35:55;2.40;;;2.00;;
37903;SDS011;23738;50.422;18.758;2023-05-16T10:38:22;3.50;;;2.10;;
37903;SDS011;23738;50.422;18.758;2023-05-16T10:40:51;2.40;;;2.20;;
37903;SDS011;23738;50.422;18.758;2023-05-16T10:43:22;2.40;;;2.20;;
37903;SDS011;23738;50.422;18.758;2023-05-16T10:45:54;4.80;;;2.70;;
37903;SDS011;23738;50.422;18.758;2023-05-16T10:48:28;2.70;;;1.90;;
37903;SDS011;23738;50.422;18.758;2023-05-16T10:50:55;2.40;;;1.90;;
37903;SDS011;23738;50.422;18.758;2023-05-16T10:53:30;3.00;;;1.80;;
37903;SDS011;23738;50.422;18.758;2023-05-16T10:56:06;4.10;;;2.10;;
37903;SDS011;23738;50.422;18.758;2023-05-16T10:58:41;3.80;;;1.80;;
37903;SDS011;23738;50.422;18.758;2023-05-16T11:01:19;3.70;;;2.20;;
37903;SDS011;23738;50.422;18.758;2023-05-16T11:04:00;2.80;;;2.00;;
37903;SDS011;23738;50.422;18.758;2023-05-16T11:06:48;2.90;;;1.90;;
37903;SDS011;23738;50.422;18.758;2023-05-16T11:09:19;3.10;;;1.60;;
37903;SDS011;23738;50.422;18.758;2023-05-16T11:11:53;5.20;;;1.90;;
37903;SDS011;23738;50.422;18.758;2023-05-16T11:14:24;1.90;;;1.80;;
37903;SDS011;23738;50.422;18.758;2023-05-16T11:16:59;1.70;;;1.60;;
37903;SDS011;23738;50.422;18.758;2023-05-16T11:19:28;4.20;;;2.00;;
37903;SDS011;23738;50.422;18.758;2023-05-16T11:22:19;4.50;;;1.80;;
37903;SDS011;23738;50.422;18.758;2023-05-16T11:24:50;3.10;;;2.10;;
37903;SDS011;23738;50.422;18.758;2023-05-16T11:27:20;2.10;;;1.80;;
37903;SDS011;23738;50.422;18.758;2023-05-16T11:29:48;7.00;;;1.90;;
37903;SDS011;23738;50.422;18.758;2023-05-16T11:32:21;2.90;;;1.90;;
37903;SDS011;23738;50.422;18.758;2023-05-16T11:34:49;2.20;;;1.80;;
37903;SDS011;23738;50.422;18.758;2023-05-16T11:37:18;3.70;;;1.80;;
37903;SDS011;23738;50.422;18.758;2023-05-16T11:39:46;2.20;;;1.90;;
37903;SDS011;23738;50.422;18.758;2023-05-16T11:42:13;2.30;;;2.00;;
37903;SDS011;23738;50.422;18.758;2023-05-16T11:44:42;2.90;;;1.90;;
37903;SDS011;23738;50.422;18.758;2023-05-16T11:49:44;2.70;;;1.90;;
37903;SDS011;23738;50.422;18.758;2023-05-16T11:52:11;4.00;;;1.90;;
37903;SDS011;23738;50.422;18.758;2023-05-16T11:54:38;2.10;;;1.80;;
37903;SDS011;23738;50.422;18.758;2023-05-16T11:57:07;2.50;;;2.00;;
37903;SDS011;23738;50.422;18.758;2023-05-16T11:59:35;4.50;;;1.80;;
37903;SDS011;23738;50.422;18.758;2023-05-16T12:02:03;3.00;;;1.90;;
37903;SDS011;23738;50.422;18.758;2023-05-16T12:04:31;2.00;;;1.80;;
37903;SDS011;23738;50.422;18.758;2023-05-16T12:06:59;3.10;;;1.90;;
37903;SDS011;23738;50.422;18.758;2023-05-16T12:09:27;3.40;;;1.90;;
37903;SDS011;23738;50.422;18.758;2023-05-16T12:11:54;3.30;;;1.90;;
37903;SDS011;23738;50.422;18.758;2023-05-16T12:14:37;3.90;;;2.20;;
37903;SDS011;23738;50.422;18.758;2023-05-16T12:17:04;2.70;;;1.90;;
37903;SDS011;23738;50.422;18.758;2023-05-16T12:19:32;3.40;;;1.80;;
37903;SDS011;23738;50.422;18.758;2023-05-16T12:21:59;2.70;;;1.80;;
37903;SDS011;23738;50.422;18.758;2023-05-16T12:24:30;2.60;;;1.70;;
37903;SDS011;23738;50.422;18.758;2023-05-16T12:26:57;2.20;;;1.80;;
37903;SDS011;23738;50.422;18.758;2023-05-16T12:29:28;3.00;;;1.60;;
37903;SDS011;23738;50.422;18.758;2023-05-16T12:31:57;3.80;;;2.10;;
37903;SDS011;23738;50.422;18.758;2023-05-16T12:34:27;1.90;;;1.70;;
37903;SDS011;23738;50.422;18.758;2023-05-16T12:37:02;3.50;;;1.80;;
37903;SDS011;23738;50.422;18.758;2023-05-16T12:39:36;3.80;;;1.70;;
37903;SDS011;23738;50.422;18.758;2023-05-16T12:42:04;1.70;;;1.60;;
37903;SDS011;23738;50.422;18.758;2023-05-16T12:44:34;3.90;;;1.70;;
37903;SDS011;23738;50.422;18.758;2023-05-16T12:47:02;2.90;;;1.90;;
37903;SDS011;23738;50.422;18.758;2023-05-16T12:49:49;2.60;;;1.80;;
37903;SDS011;23738;50.422;18.758;2023-05-16T12:52:46;1.50;;;1.40;;
37903;SDS011;23738;50.422;18.758;2023-05-16T12:55:15;1.90;;;1.60;;
37903;SDS011;23738;50.422;18.758;2023-05-16T12:57:43;2.00;;;1.50;;
37903;SDS011;23738;50.422;18.758;2023-05-16T13:00:13;6.70;;;1.90;;
37903;SDS011;23738;50.422;18.758;2023-05-16T13:02:44;2.30;;;1.50;;
37903;SDS011;23738;50.422;18.758;2023-05-16T13:05:12;2.90;;;1.70;;
37903;SDS011;23738;50.422;18.758;2023-05-16T13:07:40;2.50;;;1.70;;
37903;SDS011;23738;50.422;18.758;2023-05-16T13:10:08;2.60;;;1.70;;
37903;SDS011;23738;50.422;18.758;2023-05-16T13:12:36;1.90;;;1.50;;
37903;SDS011;23738;50.422;18.758;2023-05-16T13:15:05;2.20;;;1.80;;
37903;SDS011;23738;50.422;18.758;2023-05-16T13:17:34;3.20;;;1.60;;
37903;SDS011;23738;50.422;18.758;2023-05-16T13:20:02;3.10;;;2.00;;
37903;SDS011;23738;50.422;18.758;2023-05-16T13:22:33;2.50;;;1.80;;
37903;SDS011;23738;50.422;18.758;2023-05-16T13:25:01;3.30;;;2.20;;
37903;SDS011;23738;50.422;18.758;2023-05-16T13:27:48;3.90;;;2.10;;
37903;SDS011;23738;50.422;18.758;2023-05-16T13:30:15;2.90;;;2.10;;
37903;SDS011;23738;50.422;18.758;2023-05-16T13:32:43;3.20;;;1.80;;
37903;SDS011;23738;50.422;18.758;2023-05-16T13:35:11;5.00;;;2.00;;
37903;SDS011;23738;50.422;18.758;2023-05-16T13:37:38;6.00;;;2.10;;
37903;SDS011;23738;50.422;18.758;2023-05-16T13:40:06;5.20;;;2.10;;
37903;SDS011;23738;50.422;18.758;2023-05-16T13:42:36;3.70;;;2.40;;
37903;SDS011;23738;50.422;18.758;2023-05-16T13:45:19;5.20;;;2.00;;
37903;SDS011;23738;50.422;18.758;2023-05-16T13:47:46;4.30;;;2.00;;
37903;SDS011;23738;50.422;18.758;2023-05-16T13:50:14;3.10;;;2.00;;
37903;SDS011;23738;50.422;18.758;2023-05-16T13:52:41;2.90;;;2.30;;
37903;SDS011;23738;50.422;18.758;2023-05-16T13:55:09;3.30;;;2.40;;
37903;SDS011;23738;50.422;18.758;2023-05-16T13:57:36;4.60;;;2.20;;
37903;SDS011;23738;50.422;18.758;2023-05-16T14:00:06;3.50;;;2.30;;
37903;SDS011;23738;50.422;18.758;2023-05-16T14:02:37;2.60;;;2.20;;
37903;SDS011;23738;50.422;18.758;2023-05-16T14:05:06;4.10;;;2.00;;
37903;SDS011;23738;50.422;18.758;2023-05-16T14:07:34;3.20;;;2.40;;
37903;SDS011;23738;50.422;18.758;2023-05-16T14:10:02;2.70;;;2.40;;
37903;SDS011;23738;50.422;18.758;2023-05-16T14:12:31;3.20;;;2.60;;
37903;SDS011;23738;50.422;18.758;2023-05-16T14:14:58;3.00;;;2.10;;
37903;SDS011;23738;50.422;18.758;2023-05-16T14:17:26;3.20;;;2.20;;
37903;SDS011;23738;50.422;18.758;2023-05-16T14:19:53;3.50;;;2.90;;
37903;SDS011;23738;50.422;18.758;2023-05-16T14:22:40;4.20;;;3.70;;
37903;SDS011;23738;50.422;18.758;2023-05-16T14:25:08;3.80;;;3.10;;
37903;SDS011;23738;50.422;18.758;2023-05-16T14:27:35;3.40;;;3.00;;
37903;SDS011;23738;50.422;18.758;2023-05-16T14:30:03;3.30;;;2.80;;
37903;SDS011;23738;50.422;18.758;2023-05-16T14:32:34;2.80;;;2.60;;
37903;SDS011;23738;50.422;18.758;2023-05-16T14:35:02;3.70;;;2.80;;
37903;SDS011;23738;50.422;18.758;2023-05-16T14:37:30;3.10;;;2.80;;
37903;SDS011;23738;50.422;18.758;2023-05-16T14:39:57;3.50;;;2.90;;
37903;SDS011;23738;50.422;18.758;2023-05-16T14:42:25;2.90;;;2.70;;
37903;SDS011;23738;50.422;18.758;2023-05-16T14:44:52;4.60;;;2.80;;